Time;durP1;ratioP1;P1;durP2;ratioP2;P2;SDS_P1;SDS_P2;PMS_P1;PMS_P2;Temp;Humidity;BMP_temperature;BMP_pressure;BME280_temperature;BME280_humidity;BME280_pressure;Samples;Min_cycle;Max_cycle;Signal;HPM_P1;HPM_P2
2021/06/22 00:01:45;;;;;;;7.53;5.83;;;;;14.30;100833.00;;;;10484054;28;20220;-75
2021/06/22 00:06:47;;;;;;;7.43;6.07;;;;;14.30;100833.00;;;;10517211;28;20216;-75
2021/06/22 00:11:49;;;;;;;7.13;5.57;;;;;14.20;100846.00;;;;10482979;28;20576;-75
2021/06/22 00:16:51;;;;;;;10.33;4.93;;;;;14.20;100851.00;;;;10499071;28;20645;-75
2021/06/22 00:21:58;;;;;;;9.87;5.87;;;;;14.20;100845.00;;;;10483857;28;20197;-75
2021/06/22 00:27:00;;;;;;;9.50;5.50;;;;;14.20;100846.00;;;;10507482;28;20576;-76
2021/06/22 00:32:03;;;;;;;7.60;6.20;;;;;14.10;100844.00;;;;10507330;28;20224;-75
2021/06/22 00:37:05;;;;;;;10.03;6.77;;;;;14.10;100856.00;;;;10523717;28;20661;-75
2021/06/22 00:42:08;;;;;;;7.27;5.80;;;;;14.20;100859.00;;;;10542322;28;20267;-75
2021/06/22 00:47:10;;;;;;;9.10;6.00;;;;;14.20;100855.00;;;;10506423;28;20255;-75
2021/06/22 00:52:28;;;;;;;8.67;5.87;;;;;14.20;100867.00;;;;10503875;28;20269;-75
2021/06/22 00:57:31;;;;;;;13.03;5.83;;;;;14.20;100872.00;;;;10448806;28;20259;-75
2021/06/22 01:02:34;;;;;;;6.13;4.97;;;;;14.20;100859.00;;;;10432547;28;20197;-75
2021/06/22 01:07:36;;;;;;;8.20;6.07;;;;;14.20;100871.00;;;;10431479;28;20225;-75
2021/06/22 01:12:51;;;;;;;11.10;6.10;;;;;14.10;100878.00;;;;10465698;28;20189;-75
2021/06/22 01:17:55;;;;;;;7.63;5.77;;;;;14.10;100888.00;;;;10464857;28;20186;-75
2021/06/22 01:23:03;;;;;;;12.93;5.90;;;;;14.10;100895.00;;;;10473077;28;20207;-75
2021/06/22 01:28:09;;;;;;;7.47;5.53;;;;;14.10;100902.00;;;;10505041;28;20605;-75
2021/06/22 01:33:16;;;;;;;9.17;5.23;;;;;14.10;100899.00;;;;10489042;28;20240;-75
2021/06/22 01:38:18;;;;;;;9.80;4.73;;;;;14.10;100899.00;;;;10504277;28;20209;-75
2021/06/22 01:43:24;;;;;;;8.33;4.90;;;;;14.10;100900.00;;;;10521428;28;20282;-75
2021/06/22 01:48:28;;;;;;;9.10;4.20;;;;;14.10;100885.00;;;;10502786;28;20201;-75
2021/06/22 01:53:32;;;;;;;6.53;4.50;;;;;14.00;100890.00;;;;10474237;28;20213;-75
2021/06/22 01:58:43;;;;;;;8.03;4.43;;;;;14.00;100877.00;;;;10464446;28;20193;-75
2021/06/22 02:04:11;;;;;;;9.83;4.20;;;;;13.90;100865.00;;;;10477803;28;20210;-75
2021/06/22 02:09:14;;;;;;;9.17;5.67;;;;;13.90;100863.00;;;;10445979;28;20212;-75
2021/06/22 02:14:16;;;;;;;8.50;4.50;;;;;13.80;100868.00;;;;10462423;28;20193;-74
2021/06/22 02:19:19;;;;;;;8.47;4.77;;;;;13.80;100870.00;;;;10478830;28;20197;-74
2021/06/22 02:24:22;;;;;;;12.17;4.90;;;;;13.80;100863.00;;;;10483283;28;20303;-74
2021/06/22 02:29:24;;;;;;;6.97;5.10;;;;;13.80;100866.00;;;;10503161;28;20189;-74
2021/06/22 02:34:26;;;;;;;6.40;4.70;;;;;13.80;100877.00;;;;10487290;28;20753;-73
2021/06/22 02:39:28;;;;;;;6.17;4.53;;;;;13.80;100872.00;;;;10486892;28;20228;-74
2021/06/22 02:44:30;;;;;;;7.87;4.37;;;;;13.80;100885.00;;;;10519747;28;20237;-74
2021/06/22 02:49:34;;;;;;;9.47;4.17;;;;;13.80;100890.00;;;;10522134;28;20543;-74
2021/06/22 02:54:39;;;;;;;6.97;4.40;;;;;13.80;100891.00;;;;10487954;28;20201;-74
2021/06/22 02:59:41;;;;;;;6.93;4.17;;;;;13.70;100895.00;;;;10470008;28;20201;-74
2021/06/22 03:04:44;;;;;;;5.90;4.07;;;;;13.70;100890.00;;;;10504061;28;20221;-74
2021/06/22 03:09:46;;;;;;;8.13;4.23;;;;;13.70;100889.00;;;;10486058;28;20239;-75
2021/06/22 03:14:49;;;;;;;7.33;3.63;;;;;13.70;100885.00;;;;10468537;28;20193;-74
2021/06/22 03:20:01;;;;;;;8.90;4.83;;;;;13.70;100892.00;;;;10485669;28;20193;-74
2021/06/22 03:25:06;;;;;;;9.07;4.80;;;;;13.60;100901.00;;;;10469963;28;20228;-74
2021/06/22 03:30:10;;;;;;;9.37;5.20;;;;;13.60;100910.00;;;;10484649;28;20193;-74
2021/06/22 03:35:13;;;;;;;10.83;5.80;;;;;13.60;100920.00;;;;10483964;28;20240;-74
2021/06/22 03:40:17;;;;;;;8.57;5.77;;;;;13.60;100922.00;;;;10484154;28;20201;-74
2021/06/22 03:45:20;;;;;;;10.00;5.43;;;;;13.60;100931.00;;;;10502455;28;20271;-74
2021/06/22 03:50:25;;;;;;;11.60;5.83;;;;;13.60;100934.00;;;;10467918;28;20190;-74
2021/06/22 03:55:27;;;;;;;10.20;6.13;;;;;13.60;100938.00;;;;10467510;28;20193;-74
2021/06/22 04:01:09;;;;;;;11.23;6.33;;;;;13.50;100940.00;;;;10331988;28;20553;-74
2021/06/22 04:06:15;;;;;;;13.27;5.63;;;;;13.50;100944.00;;;;10449188;28;20225;-74
2021/06/22 04:11:21;;;;;;;8.77;5.77;;;;;13.50;100952.00;;;;10475846;28;20244;-74
2021/06/22 04:16:24;;;;;;;9.50;6.27;;;;;13.50;100954.00;;;;10524296;28;20177;-74
2021/06/22 04:21:26;;;;;;;12.10;5.63;;;;;13.50;100962.00;;;;10507785;28;20193;-74
2021/06/22 04:26:30;;;;;;;17.60;6.03;;;;;13.50;100958.00;;;;10494926;28;20212;-74
2021/06/22 04:31:32;;;;;;;10.50;6.00;;;;;13.50;100957.00;;;;10524235;28;20188;-74
2021/06/22 04:36:34;;;;;;;11.67;5.93;;;;;13.40;100962.00;;;;10542096;28;20201;-74
2021/06/22 04:41:36;;;;;;;14.33;5.70;;;;;13.40;100970.00;;;;10523693;28;20276;-74
2021/06/22 04:46:38;;;;;;;10.93;6.57;;;;;13.40;100959.00;;;;10507411;28;20213;-74
2021/06/22 04:51:40;;;;;;;11.00;6.63;;;;;13.40;100960.00;;;;10490341;28;20829;-74
2021/06/22 04:56:44;;;;;;;11.40;6.50;;;;;13.40;100965.00;;;;10506780;28;20185;-74
2021/06/22 05:01:47;;;;;;;14.57;7.23;;;;;13.40;100960.00;;;;10476080;28;20194;-74
2021/06/22 05:06:49;;;;;;;11.10;6.57;;;;;13.50;100951.00;;;;10498746;28;20217;-74
2021/06/22 05:11:50;;;;;;;11.37;7.77;;;;;13.50;100956.00;;;;10447738;28;20197;-74
2021/06/22 05:16:52;;;;;;;14.70;8.17;;;;;13.50;100960.00;;;;10463962;28;20193;-74
2021/06/22 05:21:54;;;;;;;15.57;8.10;;;;;13.60;100969.00;;;;10481253;28;20194;-74
2021/06/22 05:26:56;;;;;;;15.00;7.23;;;;;13.70;100965.00;;;;10504823;28;20220;-74
2021/06/22 05:31:58;;;;;;;12.50;8.43;;;;;13.70;100963.00;;;;10472182;28;20703;-74
2021/06/22 05:37:00;;;;;;;14.70;8.33;;;;;13.70;100965.00;;;;10496149;28;20193;-74
2021/06/22 05:42:03;;;;;;;13.07;7.70;;;;;13.60;100963.00;;;;10479295;28;20197;-75
2021/06/22 05:47:05;;;;;;;14.30;8.10;;;;;13.60;100964.00;;;;10479604;28;20218;-75
2021/06/22 05:52:07;;;;;;;17.33;8.57;;;;;13.60;100971.00;;;;10462473;28;20212;-75
2021/06/22 05:57:09;;;;;;;15.40;8.67;;;;;13.60;100974.00;;;;10459628;28;20198;-75
2021/06/22 06:02:11;;;;;;;12.97;7.60;;;;;13.60;100980.00;;;;10462693;28;20280;-75
2021/06/22 06:07:13;;;;;;;16.90;7.97;;;;;13.50;101002.00;;;;10446541;28;20217;-75
2021/06/22 06:12:15;;;;;;;12.17;7.40;;;;;13.50;101000.00;;;;10479827;28;20204;-75
2021/06/22 06:17:17;;;;;;;15.07;7.23;;;;;13.60;101007.00;;;;10462611;28;20240;-75
2021/06/22 06:22:19;;;;;;;12.50;7.03;;;;;13.70;101013.00;;;;10462151;28;20300;-75
2021/06/22 06:27:25;;;;;;;11.10;7.70;;;;;13.80;101003.00;;;;10453152;28;20224;-75
2021/06/22 06:32:27;;;;;;;11.57;7.00;;;;;13.90;101017.00;;;;10470680;28;20213;-75
2021/06/22 06:37:29;;;;;;;18.33;7.27;;;;;14.00;101016.00;;;;10487194;28;20568;-75
2021/06/22 06:42:31;;;;;;;11.67;6.57;;;;;14.10;101019.00;;;;10486537;28;20239;-76
2021/06/22 06:47:33;;;;;;;13.40;7.43;;;;;14.10;101028.00;;;;10453263;28;20730;-75
2021/06/22 06:52:35;;;;;;;16.37;7.27;;;;;14.10;101021.00;;;;10475345;28;20201;-75
2021/06/22 06:57:37;;;;;;;18.80;6.97;;;;;14.10;101022.00;;;;10511307;28;20193;-75
2021/06/22 07:02:39;;;;;;;13.07;7.50;;;;;14.00;101024.00;;;;10474871;28;20197;-75
2021/06/22 07:07:41;;;;;;;14.87;7.93;;;;;13.90;101038.00;;;;10469147;28;20221;-75
2021/06/22 07:12:43;;;;;;;14.60;8.00;;;;;13.90;101047.00;;;;10468763;28;20202;-75
2021/06/22 07:17:45;;;;;;;18.97;7.70;;;;;14.10;101050.00;;;;10468663;28;20243;-76
2021/06/22 07:22:47;;;;;;;15.23;8.83;;;;;14.20;101051.00;;;;10476188;28;20671;-75
2021/06/22 07:27:49;;;;;;;12.47;8.47;;;;;14.40;101053.00;;;;10515643;28;20726;-76
2021/06/22 07:32:52;;;;;;;14.67;9.07;;;;;14.50;101056.00;;;;10530179;28;20217;-76
2021/06/22 07:38:03;;;;;;;19.50;8.80;;;;;14.70;101060.00;;;;10503382;28;20208;-76
2021/06/22 07:43:05;;;;;;;14.33;8.53;;;;;14.60;101061.00;;;;10512103;28;20227;-76
2021/06/22 07:48:08;;;;;;;13.77;9.70;;;;;14.70;101062.00;;;;10545160;28;20196;-76
2021/06/22 07:53:11;;;;;;;12.77;9.57;;;;;14.90;101058.00;;;;10504750;28;20185;-76
2021/06/22 07:58:13;;;;;;;14.27;10.27;;;;;15.00;101051.00;;;;10508515;28;20272;-76
2021/06/22 08:03:21;;;;;;;17.40;10.13;;;;;15.20;101051.00;;;;10500549;28;20196;-76
2021/06/22 08:08:23;;;;;;;16.07;9.97;;;;;15.20;101071.00;;;;10483054;28;20206;-76
2021/06/22 08:13:25;;;;;;;14.70;10.63;;;;;15.10;101062.00;;;;10534583;28;20786;-76
2021/06/22 08:18:27;;;;;;;13.13;10.13;;;;;14.90;101064.00;;;;10498622;28;20190;-76
2021/06/22 08:23:29;;;;;;;15.67;9.60;;;;;14.80;101066.00;;;;10500887;28;20204;-76
2021/06/22 08:28:33;;;;;;;12.10;10.37;;;;;14.60;101076.00;;;;10465529;28;20231;-76
2021/06/22 08:33:35;;;;;;;17.47;10.43;;;;;14.90;101065.00;;;;10475003;28;20295;-76
2021/06/22 08:38:37;;;;;;;13.10;9.43;;;;;15.20;101071.00;;;;10495720;28;20193;-76
2021/06/22 08:43:41;;;;;;;18.00;10.43;;;;;15.20;101077.00;;;;10491120;28;20204;-76
2021/06/22 08:48:42;;;;;;;13.10;9.93;;;;;15.00;101092.00;;;;10511227;28;20212;-76
2021/06/22 08:53:44;;;;;;;14.33;10.03;;;;;14.80;101085.00;;;;10539750;28;20655;-76
2021/06/22 08:58:46;;;;;;;15.43;10.20;;;;;15.00;101087.00;;;;10528566;28;20190;-76
2021/06/22 09:03:48;;;;;;;15.77;9.30;;;;;15.10;101088.00;;;;10488797;28;20223;-75
2021/06/22 09:08:54;;;;;;;12.90;8.23;;;;;15.10;101101.00;;;;10507892;28;20265;-75
2021/06/22 09:14:01;;;;;;;12.03;9.10;;;;;15.60;101093.00;;;;10529949;28;20192;-75
2021/06/22 09:19:09;;;;;;;16.30;8.40;;;;;16.10;101106.00;;;;10537720;28;20231;-75
2021/06/22 09:24:24;;;;;;;14.70;8.53;;;;;16.70;101112.00;;;;10541086;28;20661;-75
2021/06/22 09:29:42;;;;;;;14.47;8.73;;;;;17.10;101117.00;;;;10532617;28;20192;-75
2021/06/22 09:35:06;;;;;;;11.00;7.67;;;;;17.20;101130.00;;;;10518011;28;20235;-76
2021/06/22 09:40:09;;;;;;;10.83;8.00;;;;;17.40;101126.00;;;;10533006;28;20744;-75
2021/06/22 09:45:19;;;;;;;10.20;7.53;;;;;17.70;101129.00;;;;10519069;28;20217;-75
2021/06/22 09:50:48;;;;;;;17.25;8.10;;;;;18.20;101131.00;;;;10507058;28;20200;-75
2021/06/22 09:56:20;;;;;;;13.07;7.88;;;;;18.80;101133.00;;;;10477134;28;20275;-74
2021/06/22 10:01:31;;;;;;;14.10;7.70;;;;;18.80;101134.00;;;;10541894;28;20213;-75
2021/06/22 10:06:34;;;;;;;19.55;8.82;;;;;18.10;101140.00;;;;10504918;28;20278;-75
2021/06/22 10:11:42;;;;;;;13.25;9.35;;;;;18.20;101141.00;;;;10501322;28;20841;-75
2021/06/22 10:16:44;;;;;;;17.00;10.63;;;;;18.40;101123.00;;;;10518223;28;20196;-75
2021/06/22 10:21:47;;;;;;;14.70;9.80;;;;;18.60;101138.00;;;;10529658;28;20205;-75
2021/06/22 10:26:51;;;;;;;14.63;10.80;;;;;18.00;101143.00;;;;10523908;28;20898;-75
2021/06/22 10:31:55;;;;;;;14.38;10.38;;;;;18.10;101152.00;;;;10510018;28;20231;-75
2021/06/22 10:37:02;;;;;;;15.32;10.93;;;;;17.40;101151.00;;;;10518948;28;20193;-75
2021/06/22 10:42:09;;;;;;;17.10;12.68;;;;;17.80;101160.00;;;;10517585;28;20972;-75
2021/06/22 10:47:24;;;;;;;16.35;12.77;;;;;18.00;101157.00;;;;10532157;28;20323;-75
2021/06/22 10:52:45;;;;;;;18.73;13.60;;;;;17.90;101165.00;;;;10483318;28;20219;-74
2021/06/22 10:58:15;;;;;;;17.38;13.18;;;;;17.60;101157.00;;;;10516648;28;20240;-75
2021/06/22 11:03:32;;;;;;;19.38;14.55;;;;;17.50;101153.00;;;;10515064;28;20208;-75
2021/06/22 11:08:38;;;;;;;18.67;15.18;;;;;17.40;101148.00;;;;10514149;28;20575;-75
2021/06/22 11:13:56;;;;;;;22.45;16.70;;;;;17.20;101159.00;;;;10522479;28;20189;-75
2021/06/22 11:19:00;;;;;;;23.90;17.85;;;;;17.00;101169.00;;;;10524001;28;20188;-77
2021/06/22 11:24:09;;;;;;;23.13;17.57;;;;;17.40;101153.00;;;;10506601;28;20192;-76
2021/06/22 11:29:12;;;;;;;21.00;18.50;;;;;17.70;101158.00;;;;10548266;28;20204;-76
2021/06/22 11:34:34;;;;;;;22.45;19.55;;;;;18.50;101164.00;;;;10518899;28;20208;-76
2021/06/22 11:39:38;;;;;;;23.42;19.73;;;;;18.70;101158.00;;;;10504707;28;20205;-76
2021/06/22 11:44:51;;;;;;;23.20;19.65;;;;;18.40;101165.00;;;;10518309;28;20185;-76
2021/06/22 11:49:58;;;;;;;26.58;21.35;;;;;18.60;101158.00;;;;10525143;28;20185;-75
2021/06/22 11:55:02;;;;;;;24.83;20.30;;;;;18.30;101159.00;;;;10526263;28;20659;-75
2021/06/22 12:00:11;;;;;;;28.38;20.42;;;;;17.90;101151.00;;;;10517994;28;20180;-75
2021/06/22 12:05:17;;;;;;;23.33;20.67;;;;;17.40;101163.00;;;;10506249;28;20315;-75
2021/06/22 12:10:22;;;;;;;25.40;20.65;;;;;17.30;101172.00;;;;10539951;28;20197;-75
2021/06/22 12:15:35;;;;;;;24.00;19.80;;;;;17.30;101184.00;;;;10494651;28;20763;-75
2021/06/22 12:20:41;;;;;;;23.48;19.27;;;;;17.10;101174.00;;;;10486995;28;20686;-76
2021/06/22 12:25:44;;;;;;;26.00;21.38;;;;;17.40;101171.00;;;;10521356;28;20676;-75
2021/06/22 12:30:47;;;;;;;25.20;20.25;;;;;17.70;101175.00;;;;10562646;28;20207;-76
2021/06/22 12:35:52;;;;;;;25.88;20.88;;;;;18.60;101156.00;;;;10458338;28;20681;-76
2021/06/22 12:41:05;;;;;;;28.13;21.58;;;;;19.50;101151.00;;;;10547935;28;20205;-76
2021/06/22 12:46:07;;;;;;;25.40;20.10;;;;;19.20;101156.00;;;;10477649;28;20745;-76
2021/06/22 12:51:12;;;;;;;27.15;21.98;;;;;19.00;101150.00;;;;10563086;28;20192;-76
2021/06/22 12:56:19;;;;;;;26.85;21.85;;;;;19.10;101156.00;;;;10536855;28;20188;-75
2021/06/22 13:01:33;;;;;;;25.00;21.52;;;;;19.00;101147.00;;;;10543518;28;20195;-76
2021/06/22 13:06:40;;;;;;;23.52;21.02;;;;;18.30;101147.00;;;;10538457;28;20204;-76
2021/06/22 13:11:54;;;;;;;24.98;22.33;;;;;17.80;101156.00;;;;10501915;28;20196;-75
2021/06/22 13:17:07;;;;;;;26.77;21.73;;;;;17.30;101156.00;;;;10534280;28;20192;-75
2021/06/22 13:22:10;;;;;;;27.98;23.02;;;;;17.00;101163.00;;;;10476767;28;20193;-75
2021/06/22 13:27:26;;;;;;;26.48;21.67;;;;;16.70;101170.00;;;;10483702;28;20209;-76
2021/06/22 13:32:37;;;;;;;26.80;20.52;;;;;16.70;101168.00;;;;10510289;28;20215;-76
2021/06/22 13:37:53;;;;;;;25.48;20.33;;;;;16.70;101180.00;;;;10483054;28;20212;-76
2021/06/22 13:43:13;;;;;;;21.88;19.58;;;;;16.60;101175.00;;;;10486305;28;20207;-76
2021/06/22 13:48:36;;;;;;;22.42;20.05;;;;;16.60;101187.00;;;;10490409;28;20223;-76
2021/06/22 13:53:42;;;;;;;25.20;20.93;;;;;16.60;101180.00;;;;10485604;28;20660;-76
2021/06/22 13:58:45;;;;;;;24.63;20.42;;;;;16.70;101188.00;;;;10469429;28;20189;-76
2021/06/22 14:03:46;;;;;;;25.03;19.37;;;;;16.80;101191.00;;;;10513959;28;20545;-76
2021/06/22 14:08:48;;;;;;;24.60;19.35;;;;;17.00;101194.00;;;;10476292;28;20213;-75
2021/06/22 14:13:53;;;;;;;21.42;19.08;;;;;16.90;101196.00;;;;10502674;28;20246;-76
2021/06/22 14:18:55;;;;;;;22.88;19.25;;;;;16.80;101200.00;;;;10529117;28;20216;-76
2021/06/22 14:23:57;;;;;;;23.67;19.53;;;;;16.70;101201.00;;;;10509789;28;20552;-76
2021/06/22 14:28:59;;;;;;;27.52;21.63;;;;;16.70;101194.00;;;;10517318;28;20671;-76
2021/06/22 14:34:02;;;;;;;21.00;18.95;;;;;16.60;101206.00;;;;10519716;28;20216;-76
2021/06/22 14:39:04;;;;;;;21.92;19.63;;;;;16.90;101208.00;;;;10566775;28;20202;-76
2021/06/22 14:44:06;;;;;;;23.80;21.27;;;;;17.40;101196.00;;;;10491818;28;20552;-76
2021/06/22 14:49:07;;;;;;;28.92;20.20;;;;;17.60;101205.00;;;;10532774;28;20205;-76
2021/06/22 14:54:09;;;;;;;25.75;23.13;;;;;17.50;101200.00;;;;10504405;28;20188;-76
2021/06/22 14:59:12;;;;;;;28.13;23.98;;;;;17.70;101194.00;;;;10529046;28;20193;-76
2021/06/22 15:04:13;;;;;;;27.77;23.60;;;;;17.70;101189.00;;;;10522832;28;20192;-76
2021/06/22 15:09:15;;;;;;;27.27;24.02;;;;;17.60;101190.00;;;;10504751;28;20215;-76
2021/06/22 15:14:17;;;;;;;29.92;26.80;;;;;17.50;101186.00;;;;10505901;28;20196;-76
2021/06/22 15:19:22;;;;;;;31.70;27.23;;;;;17.40;101188.00;;;;10505278;28;20556;-76
2021/06/22 15:24:24;;;;;;;30.95;26.88;;;;;17.40;101186.00;;;;10501121;28;20196;-76
2021/06/22 15:29:28;;;;;;;33.85;30.33;;;;;17.50;101186.00;;;;10522975;28;20633;-76
2021/06/22 15:34:59;;;;;;;32.17;28.65;;;;;17.60;101184.00;;;;10537935;28;20216;-77
2021/06/22 15:40:05;;;;;;;33.58;30.02;;;;;17.50;101189.00;;;;10549379;28;20219;-76
2021/06/22 15:45:12;;;;;;;32.90;29.63;;;;;17.20;101194.00;;;;10546566;28;20219;-76
2021/06/22 15:50:19;;;;;;;35.50;31.85;;;;;17.00;101202.00;;;;10524409;28;20193;-76
2021/06/22 15:55:22;;;;;;;36.55;32.78;;;;;16.90;101202.00;;;;10504714;28;20663;-76
2021/06/22 16:00:27;;;;;;;35.05;31.40;;;;;16.80;101216.00;;;;10485476;28;20280;-76
2021/06/22 16:05:33;;;;;;;36.88;33.22;;;;;16.70;101227.00;;;;10487519;28;20228;-76
2021/06/22 16:10:37;;;;;;;36.83;32.70;;;;;16.60;101222.00;;;;10520025;28;20200;-77
2021/06/22 16:15:43;;;;;;;37.47;33.50;;;;;16.50;101230.00;;;;10521092;28;20216;-77
2021/06/22 16:20:45;;;;;;;39.10;34.88;;;;;16.50;101228.00;;;;10496522;28;20193;-76
2021/06/22 16:25:47;;;;;;;40.33;36.00;;;;;16.40;101238.00;;;;10475754;28;20223;-77
2021/06/22 16:30:50;;;;;;;40.70;36.67;;;;;16.40;101238.00;;;;10477672;28;20193;-76
2021/06/22 16:35:52;;;;;;;42.50;37.93;;;;;16.30;101247.00;;;;10487050;28;20212;-77
2021/06/22 16:40:54;;;;;;;43.73;39.17;;;;;16.30;101231.00;;;;10480232;28;20204;-76
2021/06/22 16:45:56;;;;;;;41.37;37.13;;;;;16.30;101230.00;;;;10536844;28;20224;-76
2021/06/22 16:50:58;;;;;;;42.40;37.83;;;;;16.30;101232.00;;;;10449332;28;20205;-77
2021/06/22 16:56:00;;;;;;;39.97;35.63;;;;;16.30;101223.00;;;;10547297;28;20188;-76
2021/06/22 17:01:02;;;;;;;41.93;37.30;;;;;16.30;101226.00;;;;10527499;28;20188;-76
2021/06/22 17:06:06;;;;;;;41.85;37.63;;;;;16.40;101212.00;;;;10543266;28;20207;-76
2021/06/22 17:11:08;;;;;;;42.73;38.23;;;;;16.60;101214.00;;;;10510246;28;20190;-76
2021/06/22 17:16:10;;;;;;;40.13;36.07;;;;;16.60;101208.00;;;;10477753;28;20410;-76
2021/06/22 17:21:12;;;;;;;41.10;36.03;;;;;16.50;101219.00;;;;10478355;28;20201;-76
2021/06/22 17:26:14;;;;;;;38.83;34.77;;;;;16.40;101213.00;;;;10460657;28;20216;-77
2021/06/22 17:31:16;;;;;;;36.73;33.03;;;;;16.10;101226.00;;;;10481733;28;20190;-77
2021/06/22 17:36:19;;;;;;;39.57;35.60;;;;;15.90;101233.00;;;;10462382;28;20280;-77
2021/06/22 17:41:22;;;;;;;39.40;35.27;;;;;15.80;101240.00;;;;10486009;28;20215;-77
2021/06/22 17:46:24;;;;;;;39.23;35.43;;;;;15.50;101246.00;;;;10474158;28;20208;-77
2021/06/22 17:51:27;;;;;;;42.47;37.03;;;;;15.30;101241.00;;;;10484680;28;20227;-77
2021/06/22 17:56:29;;;;;;;38.57;34.67;;;;;15.00;101247.00;;;;10482829;28;20219;-77
2021/06/22 18:01:32;;;;;;;39.80;35.63;;;;;14.80;101242.00;;;;10519946;28;20204;-77
2021/06/22 18:06:34;;;;;;;43.20;35.63;;;;;14.70;101253.00;;;;10480432;28;20212;-76
2021/06/22 18:11:36;;;;;;;40.57;35.93;;;;;14.70;101264.00;;;;10518257;28;20216;-77
2021/06/22 18:16:38;;;;;;;40.77;36.27;;;;;14.60;101261.00;;;;10490936;28;20193;-76
2021/06/22 18:21:40;;;;;;;38.87;34.70;;;;;14.60;101263.00;;;;10485695;28;20201;-77
2021/06/22 18:26:42;;;;;;;41.40;35.03;;;;;14.50;101263.00;;;;10486387;28;20264;-77
2021/06/22 18:31:44;;;;;;;37.60;33.63;;;;;14.50;101253.00;;;;10450896;28;20228;-77
2021/06/22 18:36:45;;;;;;;41.87;36.10;;;;;14.50;101246.00;;;;10497281;28;20197;-77
2021/06/22 18:41:50;;;;;;;49.73;36.37;;;;;14.50;101242.00;;;;10525700;28;20204;-77
2021/06/22 18:46:52;;;;;;;42.60;36.03;;;;;14.40;101242.00;;;;10525509;28;20208;-77
2021/06/22 18:51:54;;;;;;;42.27;35.10;;;;;14.40;101252.00;;;;10496697;28;20208;-77
2021/06/22 18:56:56;;;;;;;40.70;34.37;;;;;14.40;101249.00;;;;10509097;28;20656;-76
2021/06/22 19:01:58;;;;;;;41.27;35.33;;;;;14.30;101252.00;;;;10527039;28;20185;-76
2021/06/22 19:07:01;;;;;;;40.73;36.17;;;;;14.30;101256.00;;;;10465023;28;20218;-76
2021/06/22 19:12:03;;;;;;;42.97;35.60;;;;;14.20;101256.00;;;;10494653;28;20189;-77
2021/06/22 19:17:09;;;;;;;40.70;36.17;;;;;14.20;101269.00;;;;10516503;28;20189;-76
2021/06/22 19:22:12;;;;;;;45.37;37.23;;;;;14.10;101280.00;;;;10488970;28;20197;-76
2021/06/22 19:27:14;;;;;;;42.27;36.37;;;;;14.10;101282.00;;;;10523352;28;20217;-76
2021/06/22 19:32:16;;;;;;;46.23;38.20;;;;;14.00;101281.00;;;;10470017;28;20267;-76
2021/06/22 19:37:18;;;;;;;47.83;38.90;;;;;14.00;101289.00;;;;10506316;28;20201;-76
2021/06/22 19:42:19;;;;;;;46.00;40.23;;;;;14.10;101302.00;;;;10500540;28;20242;-76
2021/06/22 19:47:23;;;;;;;50.33;39.70;;;;;14.10;101318.00;;;;10480712;28;20213;-76
2021/06/22 19:52:25;;;;;;;52.57;40.73;;;;;14.10;101314.00;;;;10481737;28;20193;-76
2021/06/22 19:57:27;;;;;;;59.40;41.30;;;;;14.10;101314.00;;;;10504424;28;20189;-76
2021/06/22 20:02:29;;;;;;;50.67;41.93;;;;;14.10;101327.00;;;;10450870;28;20238;-76
2021/06/22 20:07:32;;;;;;;49.67;42.67;;;;;14.10;101336.00;;;;10498245;28;20224;-76
2021/06/22 20:12:34;;;;;;;55.43;44.10;;;;;14.10;101333.00;;;;10484411;28;20672;-76
2021/06/22 20:17:36;;;;;;;59.47;46.17;;;;;14.10;101337.00;;;;10474838;28;20595;-75
2021/06/22 20:22:42;;;;;;;55.93;44.80;;;;;14.10;101347.00;;;;10504535;28;20204;-75
2021/06/22 20:27:44;;;;;;;64.90;46.47;;;;;14.10;101352.00;;;;10497124;28;20231;-75
2021/06/22 20:32:46;;;;;;;60.70;45.13;;;;;14.00;101363.00;;;;10480985;28;20217;-76
2021/06/22 20:37:48;;;;;;;64.37;45.50;;;;;14.10;101371.00;;;;10465528;28;20201;-76
2021/06/22 20:42:50;;;;;;;59.13;41.97;;;;;14.10;101379.00;;;;10481437;28;20223;-75
2021/06/22 20:47:53;;;;;;;46.30;36.17;;;;;14.10;101377.00;;;;10485609;28;20757;-75
2021/06/22 20:52:55;;;;;;;48.00;35.43;;;;;14.00;101385.00;;;;10517624;28;20205;-75
2021/06/22 20:57:57;;;;;;;48.73;35.67;;;;;14.00;101378.00;;;;10503619;28;20200;-76
2021/06/22 21:02:59;;;;;;;43.40;33.00;;;;;14.00;101394.00;;;;10450060;28;20192;-75
2021/06/22 21:08:01;;;;;;;42.03;33.47;;;;;13.90;101400.00;;;;10478198;28;20206;-75
2021/06/22 21:13:03;;;;;;;44.30;31.00;;;;;13.90;101403.00;;;;10499399;28;20247;-76
2021/06/22 21:18:07;;;;;;;48.77;32.90;;;;;13.80;101402.00;;;;10499941;28;20207;-76
2021/06/22 21:23:09;;;;;;;39.57;31.80;;;;;13.80;101406.00;;;;10492908;28;20204;-76
2021/06/22 21:28:11;;;;;;;41.23;30.00;;;;;13.70;101403.00;;;;10499840;28;20209;-76
2021/06/22 21:33:14;;;;;;;40.77;29.47;;;;;13.60;101407.00;;;;10474872;28;20833;-76
2021/06/22 21:38:15;;;;;;;38.30;27.70;;;;;13.60;101412.00;;;;10497496;28;20204;-76
2021/06/22 21:43:17;;;;;;;43.10;28.77;;;;;13.50;101422.00;;;;10502509;28;20204;-76
2021/06/22 21:48:20;;;;;;;37.23;27.47;;;;;13.40;101418.00;;;;10480398;28;20205;-76
2021/06/22 21:53:22;;;;;;;31.13;25.27;;;;;13.30;101428.00;;;;10534063;28;20234;-77
2021/06/22 21:58:24;;;;;;;39.67;28.70;;;;;13.30;101428.00;;;;10500844;28;20190;-75
2021/06/22 22:03:26;;;;;;;37.20;28.37;;;;;13.20;101439.00;;;;10483862;28;20194;-75
2021/06/22 22:08:27;;;;;;;35.93;27.63;;;;;13.20;101440.00;;;;10504609;28;20703;-75
2021/06/22 22:13:29;;;;;;;44.33;28.60;;;;;13.30;101442.00;;;;10506230;28;20793;-75
2021/06/22 22:18:32;;;;;;;45.80;29.70;;;;;13.30;101450.00;;;;10493249;28;20743;-76
2021/06/22 22:23:34;;;;;;;39.47;27.83;;;;;13.30;101450.00;;;;10497893;28;20200;-75
2021/06/22 22:28:36;;;;;;;40.70;26.73;;;;;13.20;101457.00;;;;10484240;28;20201;-75
2021/06/22 22:33:38;;;;;;;33.27;23.13;;;;;13.20;101464.00;;;;10461589;28;20225;-75
2021/06/22 22:38:40;;;;;;;24.77;18.53;;;;;13.10;101472.00;;;;10500010;28;20262;-75
2021/06/22 22:43:44;;;;;;;23.80;15.90;;;;;13.00;101470.00;;;;10483232;28;20204;-75
2021/06/22 22:48:46;;;;;;;18.33;12.70;;;;;12.90;101488.00;;;;10515520;28;20205;-75
2021/06/22 22:53:47;;;;;;;23.20;13.87;;;;;12.80;101485.00;;;;10500030;28;20770;-75
2021/06/22 22:58:49;;;;;;;17.50;11.53;;;;;12.80;101475.00;;;;10474399;28;20220;-75
2021/06/22 23:03:51;;;;;;;18.87;10.57;;;;;12.70;101484.00;;;;10508113;28;20205;-75
2021/06/22 23:08:53;;;;;;;17.97;9.57;;;;;12.70;101481.00;;;;10505739;28;20561;-75
2021/06/22 23:13:55;;;;;;;12.83;8.60;;;;;12.60;101478.00;;;;10507445;28;20247;-75
2021/06/22 23:18:57;;;;;;;15.30;8.93;;;;;12.60;101485.00;;;;10507994;28;20189;-75
2021/06/22 23:23:59;;;;;;;11.87;7.60;;;;;12.50;101492.00;;;;10489238;28;20201;-75
2021/06/22 23:29:01;;;;;;;11.43;8.00;;;;;12.50;101487.00;;;;10464805;28;20215;-75
2021/06/22 23:34:04;;;;;;;11.30;7.47;;;;;12.50;101484.00;;;;10499238;28;20221;-75
2021/06/22 23:39:06;;;;;;;11.40;7.50;;;;;12.50;101478.00;;;;10506238;28;20197;-75
2021/06/22 23:44:08;;;;;;;13.87;7.87;;;;;12.50;101479.00;;;;10508788;28;20189;-75
2021/06/22 23:49:10;;;;;;;15.40;8.30;;;;;12.40;101476.00;;;;10492605;28;20201;-75
2021/06/22 23:54:12;;;;;;;12.00;7.87;;;;;12.40;101476.00;;;;10498774;28;20267;-75
2021/06/22 23:59:15;;;;;;;14.37;8.23;;;;;12.40;101480.00;;;;10509410;28;20239;-75
